AAL1784 KORD-KCLT
Flight info
| Callsign | AAL1784 |
|---|---|
| Flight time | 1h 17m |
| Altitude | 35000 |
| Route | EARND ELANR EMMLY ETAME EMEGE FLM TAFTT PARQR4 |
| Aircraft | A321/M-SDE3FGHIRWY/LB1 |
Departure
| Time | 2026-05-04 16:24 |
|---|---|
| Airport | Chicago O'Hare International Airport (KORD) |
Arrival
| Time | 2026-05-04 17:41 |
|---|---|
| Airport | Charlotte Douglas International Airport (KCLT) |
| Time | Latitude | Longitude | Altitude | Speed | Heading |
|---|---|---|---|---|---|
| 2026-05-04 15:57 | 41.97265 | -87.90099 | 669 ft | 0 kts | 54° |
| 2026-05-04 16:15 | 41.97267 | -87.90158 | 666 ft | 4 kts | 165° |
| 2026-05-04 16:16 | 41.97276 | -87.90160 | 667 ft | 0 kts | 180° |
| 2026-05-04 16:18 | 41.97237 | -87.90158 | 669 ft | 4 kts | 169° |
| 2026-05-04 16:18 | 41.97203 | -87.90144 | 670 ft | 6 kts | 162° |
| 2026-05-04 16:19 | 41.97138 | -87.89996 | 670 ft | 9 kts | 90° |
| 2026-05-04 16:19 | 41.97157 | -87.89823 | 671 ft | 10 kts | 67° |
| 2026-05-04 16:20 | 41.97201 | -87.89527 | 670 ft | 13 kts | 101° |
| 2026-05-04 16:20 | 41.97197 | -87.89268 | 670 ft | 15 kts | 90° |
| 2026-05-04 16:21 | 41.97196 | -87.88815 | 670 ft | 17 kts | 90° |
| 2026-05-04 16:22 | 41.97195 | -87.88475 | 670 ft | 19 kts | 90° |
| 2026-05-04 16:22 | 41.97128 | -87.88037 | 670 ft | 14 kts | 174° |
| 2026-05-04 16:23 | 41.96813 | -87.88189 | 668 ft | 49 kts | 221° |
| 2026-05-04 16:24 | 41.93849 | -87.91487 | 2682 ft | 165 kts | 201° |
| 2026-05-04 16:25 | 41.91293 | -87.90493 | 3144 ft | 226 kts | 158° |
| 2026-05-04 16:26 | 41.84984 | -87.85790 | 5393 ft | 273 kts | 158° |
| 2026-05-04 16:26 | 41.79807 | -87.82201 | 7468 ft | 285 kts | 159° |
| 2026-05-04 16:27 | 41.76205 | -87.79770 | 8855 ft | 294 kts | 159° |
| 2026-05-04 16:28 | 41.70556 | -87.75982 | 10392 ft | 323 kts | 160° |
| 2026-05-04 16:28 | 41.63917 | -87.71571 | 10911 ft | 381 kts | 159° |
| 2026-05-04 16:29 | 41.54259 | -87.65062 | 13320 ft | 397 kts | 158° |
| 2026-05-04 16:30 | 41.46765 | -87.60055 | 15042 ft | 406 kts | 158° |
| 2026-05-04 16:31 | 41.41547 | -87.57188 | 16173 ft | 404 kts | 171° |
| 2026-05-04 16:31 | 41.33177 | -87.55606 | 17895 ft | 409 kts | 178° |
| 2026-05-04 16:32 | 41.24599 | -87.54120 | 19246 ft | 420 kts | 177° |
| 2026-05-04 16:33 | 41.18775 | -87.53062 | 20141 ft | 426 kts | 175° |
| 2026-05-04 16:33 | 41.12898 | -87.51565 | 21009 ft | 434 kts | 172° |
| 2026-05-04 16:34 | 41.06958 | -87.49836 | 21817 ft | 440 kts | 171° |
| 2026-05-04 16:34 | 41.03954 | -87.48974 | 22212 ft | 443 kts | 171° |
| 2026-05-04 16:35 | 40.94819 | -87.46504 | 23416 ft | 451 kts | 172° |
| 2026-05-04 16:35 | 40.85564 | -87.44079 | 24416 ft | 458 kts | 172° |
| 2026-05-04 16:36 | 40.82432 | -87.43252 | 24737 ft | 460 kts | 172° |
| 2026-05-04 16:36 | 40.76122 | -87.41575 | 25386 ft | 464 kts | 172° |
| 2026-05-04 16:37 | 40.69761 | -87.39879 | 26048 ft | 468 kts | 172° |
| 2026-05-04 16:37 | 40.66557 | -87.39027 | 26379 ft | 470 kts | 172° |
| 2026-05-04 16:37 | 40.60107 | -87.37319 | 27034 ft | 474 kts | 172° |
| 2026-05-04 16:38 | 40.53618 | -87.35605 | 27834 ft | 474 kts | 172° |
| 2026-05-04 16:39 | 40.45145 | -87.32682 | 29014 ft | 477 kts | 160° |
| 2026-05-04 16:39 | 40.38516 | -87.27273 | 29755 ft | 489 kts | 149° |
| 2026-05-04 16:40 | 40.33883 | -87.22913 | 30330 ft | 489 kts | 149° |
| 2026-05-04 16:40 | 40.28356 | -87.17748 | 31004 ft | 488 kts | 149° |
| 2026-05-04 16:41 | 40.22859 | -87.12635 | 31685 ft | 487 kts | 149° |
| 2026-05-04 16:41 | 40.14557 | -87.04886 | 32460 ft | 490 kts | 149° |
| 2026-05-04 16:42 | 40.06218 | -86.97184 | 33493 ft | 488 kts | 149° |
| 2026-05-04 16:43 | 40.00675 | -86.92072 | 34094 ft | 487 kts | 149° |
| 2026-05-04 16:43 | 39.95089 | -86.87059 | 34598 ft | 486 kts | 150° |
| 2026-05-04 16:43 | 39.92238 | -86.84691 | 34771 ft | 486 kts | 152° |
| 2026-05-04 16:45 | 39.75009 | -86.70757 | 34808 ft | 488 kts | 146° |
| 2026-05-04 16:46 | 39.68260 | -86.60747 | 34833 ft | 498 kts | 120° |
| 2026-05-04 16:46 | 39.64869 | -86.52900 | 34851 ft | 498 kts | 120° |
| 2026-05-04 16:47 | 39.58054 | -86.37302 | 34857 ft | 499 kts | 120° |
| 2026-05-04 16:48 | 39.51200 | -86.21643 | 34851 ft | 500 kts | 120° |
| 2026-05-04 16:49 | 39.44277 | -86.05902 | 34835 ft | 505 kts | 120° |
| 2026-05-04 16:50 | 39.37284 | -85.90093 | 34862 ft | 507 kts | 120° |
| 2026-05-04 16:51 | 39.32011 | -85.78226 | 34878 ft | 508 kts | 120° |
| 2026-05-04 16:52 | 39.24975 | -85.62467 | 34872 ft | 509 kts | 120° |
| 2026-05-04 16:53 | 39.19654 | -85.50594 | 34882 ft | 510 kts | 120° |
| 2026-05-04 16:54 | 39.12530 | -85.34782 | 34878 ft | 511 kts | 120° |
| 2026-05-04 16:55 | 39.01769 | -85.11013 | 34888 ft | 513 kts | 120° |
| 2026-05-04 16:56 | 38.92743 | -84.91231 | 34903 ft | 515 kts | 120° |
| 2026-05-04 16:57 | 38.87282 | -84.79326 | 34913 ft | 516 kts | 121° |
| 2026-05-04 16:58 | 38.79973 | -84.63462 | 34934 ft | 517 kts | 121° |
| 2026-05-04 17:00 | 38.68971 | -84.39717 | 34946 ft | 517 kts | 121° |
| 2026-05-04 17:00 | 38.62953 | -84.28314 | 34964 ft | 515 kts | 135° |
| 2026-05-04 17:01 | 38.58074 | -84.21697 | 34969 ft | 515 kts | 135° |
| 2026-05-04 17:02 | 38.48270 | -84.08431 | 34953 ft | 505 kts | 135° |
| 2026-05-04 17:03 | 38.41091 | -83.98760 | 34964 ft | 498 kts | 136° |
| 2026-05-04 17:03 | 38.33933 | -83.89149 | 34966 ft | 497 kts | 136° |
| 2026-05-04 17:04 | 38.24424 | -83.76396 | 34983 ft | 497 kts | 136° |
| 2026-05-04 17:05 | 38.14920 | -83.63711 | 34994 ft | 497 kts | 136° |
| 2026-05-04 17:06 | 38.07759 | -83.54182 | 34996 ft | 497 kts | 136° |
| 2026-05-04 17:07 | 38.01362 | -83.45716 | 35001 ft | 497 kts | 136° |
| 2026-05-04 17:07 | 37.95799 | -83.38355 | 34984 ft | 497 kts | 137° |
| 2026-05-04 17:08 | 37.88616 | -83.28872 | 35004 ft | 498 kts | 137° |
| 2026-05-04 17:09 | 37.83810 | -83.22549 | 35005 ft | 498 kts | 137° |
| 2026-05-04 17:09 | 37.79004 | -83.16245 | 35020 ft | 498 kts | 137° |
| 2026-05-04 17:10 | 37.66955 | -83.00454 | 35009 ft | 500 kts | 137° |
| 2026-05-04 17:11 | 37.62115 | -82.94149 | 35014 ft | 500 kts | 137° |
| 2026-05-04 17:12 | 37.54839 | -82.84715 | 35030 ft | 500 kts | 137° |
| 2026-05-04 17:13 | 37.42459 | -82.69403 | 35014 ft | 501 kts | 140° |
| 2026-05-04 17:14 | 37.32455 | -82.57159 | 35040 ft | 502 kts | 140° |
| 2026-05-04 17:15 | 37.24940 | -82.47969 | 35056 ft | 503 kts | 140° |
| 2026-05-04 17:16 | 37.14894 | -82.35753 | 35067 ft | 503 kts | 140° |
| 2026-05-04 17:17 | 37.04823 | -82.23641 | 35081 ft | 501 kts | 145° |
| 2026-05-04 17:17 | 36.96080 | -82.16852 | 35081 ft | 492 kts | 157° |
| 2026-05-04 17:18 | 36.93094 | -82.14771 | 35014 ft | 491 kts | 157° |
| 2026-05-04 17:18 | 36.87139 | -82.10622 | 34533 ft | 489 kts | 157° |
| 2026-05-04 17:19 | 36.81170 | -82.06524 | 33648 ft | 492 kts | 157° |
| 2026-05-04 17:19 | 36.75146 | -82.02398 | 32026 ft | 496 kts | 157° |
| 2026-05-04 17:20 | 36.69056 | -81.98239 | 30235 ft | 502 kts | 156° |
| 2026-05-04 17:20 | 36.62902 | -81.94035 | 28242 ft | 505 kts | 155° |
| 2026-05-04 17:20 | 36.59820 | -81.91926 | 27206 ft | 506 kts | 155° |
| 2026-05-04 17:21 | 36.53665 | -81.87723 | 25739 ft | 495 kts | 155° |
| 2026-05-04 17:21 | 36.47850 | -81.83748 | 25394 ft | 452 kts | 155° |
| 2026-05-04 17:22 | 36.45181 | -81.81919 | 25028 ft | 429 kts | 155° |
| 2026-05-04 17:22 | 36.42594 | -81.80162 | 24826 ft | 419 kts | 155° |
| 2026-05-04 17:23 | 36.35051 | -81.75072 | 23832 ft | 406 kts | 155° |
| 2026-05-04 17:23 | 36.32589 | -81.73409 | 23209 ft | 399 kts | 155° |
| 2026-05-04 17:23 | 36.27761 | -81.70149 | 21990 ft | 393 kts | 155° |
| 2026-05-04 17:24 | 36.25366 | -81.68534 | 21469 ft | 392 kts | 155° |
| 2026-05-04 17:24 | 36.18237 | -81.63730 | 19939 ft | 388 kts | 155° |
| 2026-05-04 17:25 | 36.15872 | -81.62135 | 19519 ft | 385 kts | 155° |
| 2026-05-04 17:25 | 36.11189 | -81.58984 | 18449 ft | 380 kts | 154° |
| 2026-05-04 17:26 | 36.06587 | -81.55896 | 17325 ft | 374 kts | 155° |
| 2026-05-04 17:26 | 35.99794 | -81.51339 | 15875 ft | 367 kts | 155° |
| 2026-05-04 17:27 | 35.95331 | -81.48349 | 14956 ft | 362 kts | 155° |
| 2026-05-04 17:27 | 35.90933 | -81.45407 | 14129 ft | 356 kts | 155° |
| 2026-05-04 17:28 | 35.86608 | -81.42523 | 12993 ft | 345 kts | 155° |
| 2026-05-04 17:29 | 35.80355 | -81.38359 | 12065 ft | 331 kts | 155° |
| 2026-05-04 17:29 | 35.74505 | -81.34370 | 11202 ft | 316 kts | 154° |
| 2026-05-04 17:30 | 35.69611 | -81.30855 | 10670 ft | 299 kts | 153° |
| 2026-05-04 17:31 | 35.66225 | -81.27894 | 10215 ft | 300 kts | 132° |
| 2026-05-04 17:31 | 35.64427 | -81.20622 | 10450 ft | 313 kts | 91° |
| 2026-05-04 17:32 | 35.64601 | -81.15380 | 9282 ft | 299 kts | 97° |
| 2026-05-04 17:33 | 35.63039 | -81.08057 | 8693 ft | 288 kts | 109° |
| 2026-05-04 17:33 | 35.62420 | -81.05745 | 8520 ft | 284 kts | 109° |
| 2026-05-04 17:34 | 35.59485 | -80.99686 | 7977 ft | 275 kts | 147° |
| 2026-05-04 17:34 | 35.57805 | -80.98604 | 7578 ft | 272 kts | 165° |
| 2026-05-04 17:35 | 35.52374 | -80.97878 | 6493 ft | 259 kts | 180° |
| 2026-05-04 17:35 | 35.48898 | -80.97575 | 5825 ft | 241 kts | 179° |
| 2026-05-04 17:35 | 35.47256 | -80.97433 | 5502 ft | 234 kts | 179° |
| 2026-05-04 17:36 | 35.45642 | -80.97294 | 5199 ft | 231 kts | 179° |
| 2026-05-04 17:36 | 35.44037 | -80.97156 | 4896 ft | 231 kts | 179° |
| 2026-05-04 17:36 | 35.42446 | -80.97016 | 4605 ft | 225 kts | 178° |
| 2026-05-04 17:36 | 35.40940 | -80.96885 | 4293 ft | 215 kts | 178° |
| 2026-05-04 17:37 | 35.39460 | -80.96757 | 4004 ft | 212 kts | 178° |
| 2026-05-04 17:37 | 35.37999 | -80.96630 | 3736 ft | 208 kts | 178° |
| 2026-05-04 17:37 | 35.36596 | -80.96511 | 3470 ft | 197 kts | 176° |
| 2026-05-04 17:37 | 35.35244 | -80.96394 | 3205 ft | 191 kts | 176° |
| 2026-05-04 17:38 | 35.33958 | -80.96282 | 2971 ft | 177 kts | 176° |
| 2026-05-04 17:38 | 35.32794 | -80.96183 | 2755 ft | 160 kts | 176° |
| 2026-05-04 17:38 | 35.31730 | -80.96090 | 2533 ft | 149 kts | 176° |
| 2026-05-04 17:38 | 35.30721 | -80.96003 | 2347 ft | 143 kts | 177° |
| 2026-05-04 17:39 | 35.28754 | -80.95874 | 2022 ft | 141 kts | 180° |
| 2026-05-04 17:39 | 35.27761 | -80.95796 | 1816 ft | 144 kts | 175° |
| 2026-05-04 17:39 | 35.26775 | -80.95680 | 1624 ft | 142 kts | 174° |
| 2026-05-04 17:40 | 35.25773 | -80.95571 | 1408 ft | 146 kts | 176° |
| 2026-05-04 17:40 | 35.24751 | -80.95493 | 1196 ft | 148 kts | 176° |
| 2026-05-04 17:40 | 35.23715 | -80.95411 | 987 ft | 150 kts | 175° |
| 2026-05-04 17:40 | 35.22668 | -80.95313 | 788 ft | 152 kts | 174° |
| 2026-05-04 17:41 | 35.21695 | -80.95228 | 741 ft | 120 kts | 175° |
| 2026-05-04 17:41 | 35.21037 | -80.95168 | 737 ft | 70 kts | 176° |
| 2026-05-04 17:41 | 35.20688 | -80.95111 | 739 ft | 34 kts | 154° |
| 2026-05-04 17:41 | 35.20561 | -80.94978 | 733 ft | 18 kts | 103° |
| 2026-05-04 17:42 | 35.20652 | -80.94937 | 733 ft | 16 kts | 358° |
| 2026-05-04 17:42 | 35.20766 | -80.94945 | 732 ft | 17 kts | 355° |
| 2026-05-04 17:42 | 35.20902 | -80.94957 | 723 ft | 23 kts | 356° |
| 2026-05-04 17:42 | 35.21054 | -80.94972 | 731 ft | 20 kts | 355° |
| 2026-05-04 17:43 | 35.21191 | -80.94984 | 733 ft | 20 kts | 356° |
| 2026-05-04 17:43 | 35.21331 | -80.94995 | 733 ft | 21 kts | 356° |
| 2026-05-04 17:43 | 35.21476 | -80.95010 | 733 ft | 21 kts | 356° |
| 2026-05-04 17:43 | 35.21602 | -80.94977 | 733 ft | 18 kts | 78° |
| 2026-05-04 17:44 | 35.21611 | -80.94818 | 732 ft | 19 kts | 85° |
| 2026-05-04 17:44 | 35.21687 | -80.94718 | 732 ft | 16 kts | 31° |
| 2026-05-04 17:44 | 35.21742 | -80.94637 | 732 ft | 7 kts | 60° |
| 2026-05-04 17:44 | 35.21756 | -80.94608 | 732 ft | 0 kts | 59° |